Time;durP1;ratioP1;P1;durP2;ratioP2;P2;SDS_P1;SDS_P2;PMS_P1;PMS_P2;Temp;Humidity;BMP_temperature;BMP_pressure;BME280_temperature;BME280_humidity;BME280_pressure;Samples;Min_cycle;Max_cycle;Signal;HPM_P1;HPM_P2
2022/02/07 00:00:45;;;;;;;6.50;4.67;;;;;;;2.43;63.64;98194.14;1738290;81;21380;-40
2022/02/07 00:03:42;;;;;;;9.23;5.78;;;;;;;2.41;63.78;98184.36;1732273;82;21623;-40
2022/02/07 00:05:41;;;;;;;;;;;;;;;2.37;63.87;98184.80;1730046;82;21151;-40
2022/02/07 00:08:09;;;;;;;8.90;5.83;;;;;;;2.35;63.95;98182.45;1727408;81;22020;-40
2022/02/07 00:10:39;;;;;;;9.38;5.83;;;;;;;2.27;64.10;98170.53;1713628;83;21009;-40
2022/02/07 00:13:08;;;;;;;8.05;5.58;;;;;;;2.29;64.06;98165.62;1713383;82;21013;-40
2022/02/07 00:15:35;;;;;;;8.10;5.40;;;;;;;2.31;63.89;98163.40;1713775;82;21064;-40
2022/02/07 00:18:04;;;;;;;10.05;5.70;;;;;;;2.34;63.80;98164.06;1713440;82;21048;-40
2022/02/07 00:20:34;;;;;;;9.10;5.25;;;;;;;2.35;63.65;98162.95;1747718;81;21076;-41
2022/02/07 00:23:01;;;;;;;9.30;5.90;;;;;;;2.38;63.45;98159.05;1743209;82;21005;-41
2022/02/07 00:25:29;;;;;;;7.65;4.87;;;;;;;2.42;63.40;98153.24;1743070;81;20922;-40
2022/02/07 00:27:55;;;;;;;7.15;5.10;;;;;;;2.44;63.20;98155.04;1707276;84;20981;-40
2022/02/07 00:30:22;;;;;;;7.42;4.50;;;;;;;2.47;63.07;98151.68;1707524;84;21005;-40
2022/02/07 00:32:50;;;;;;;6.58;4.70;;;;;;;2.50;62.99;98147.57;1703480;83;21152;-40
2022/02/07 00:35:20;;;;;;;7.05;4.65;;;;;;;2.50;62.87;98147.57;1713517;83;21515;-40
2022/02/07 00:37:47;;;;;;;6.55;4.37;;;;;;;2.51;62.84;98143.23;1692100;84;20941;-40
2022/02/07 00:42:57;;;;;;;6.53;3.95;;;;;;;2.54;62.66;98127.05;1737643;82;21527;-40
2022/02/07 00:45:38;;;;;;;6.78;4.15;;;;;;;2.54;62.76;98127.84;1742268;81;21189;-40
2022/02/07 00:48:00;;;;;;;6.92;4.30;;;;;;;2.56;62.83;98129.63;1742150;81;20965;-40
2022/02/07 00:50:22;;;;;;;5.47;3.80;;;;;;;2.57;62.85;98119.13;1743262;81;21002;-40
2022/02/07 00:52:49;;;;;;;7.12;4.00;;;;;;;2.58;62.87;98112.66;1743256;82;20973;-40
2022/02/07 00:55:15;;;;;;;5.67;3.80;;;;;;;2.58;62.99;98107.31;1743472;81;21006;-40
2022/02/07 00:57:43;;;;;;;5.92;3.85;;;;;;;2.58;63.07;98097.95;1707678;83;21097;-40
2022/02/07 01:00:11;;;;;;;6.37;4.08;;;;;;;2.58;63.07;98090.48;1743237;82;21496;-40
2022/02/07 01:02:39;;;;;;;5.00;3.58;;;;;;;2.59;63.10;98097.40;1707727;84;21057;-40
2022/02/07 01:05:06;;;;;;;6.12;4.22;;;;;;;2.23;63.15;98027.94;1685831;84;21037;-40
2022/02/07 01:07:34;;;;;;;5.87;4.12;;;;;;;2.58;63.09;98083.80;1707772;83;21073;-40
2022/02/07 01:10:01;;;;;;;5.80;3.72;;;;;;;2.59;63.24;98081.34;1707543;84;21115;-40
2022/02/07 01:15:28;;;;;;;6.00;3.75;;;;;;;2.58;63.27;98058.37;1741777;81;20930;-40
2022/02/07 01:47:47;;;;;;;6.42;3.83;;;;;;;2.67;62.73;97985.44;1743715;82;21496;-40
2022/02/07 01:57:56;;;;;;;5.58;3.75;;;;;;;2.70;62.63;97970.06;1679180;85;21092;-41
2022/02/07 02:00:24;;;;;;;6.03;3.70;;;;;;;2.71;62.63;97964.16;1713847;83;21037;-40
2022/02/07 02:02:53;;;;;;;4.65;3.58;;;;;;;2.70;62.60;97959.36;1701450;84;21980;-41
2022/02/07 02:05:22;;;;;;;8.25;3.67;;;;;;;2.73;62.58;97961.34;1742455;81;21469;-40
2022/02/07 02:07:49;;;;;;;6.58;3.35;;;;;;;2.74;62.37;97958.89;1743109;82;21101;-40
2022/02/07 02:10:17;;;;;;;5.15;3.30;;;;;;;2.76;62.37;97958.55;1743277;81;21025;-40
2022/02/07 02:13:09;;;;;;;6.40;3.47;;;;;;;2.79;62.37;97954.62;1743219;81;21057;-40
2022/02/07 02:18:15;;;;;;;;;;;;;;;2.83;62.10;97940.77;1716041;83;20962;-40
2022/02/07 02:32:46;;;;;;;5.28;3.90;;;;;;;2.82;62.10;97939.22;1679049;85;21150;-40
2022/02/07 02:46:58;;;;;;;5.78;3.70;;;;;;;2.55;66.26;97950.72;1713882;82;20962;-40
2022/02/07 02:49:31;;;;;;;6.15;4.03;;;;;;;2.50;66.76;97951.74;1714020;83;20993;-40
2022/02/07 02:51:52;;;;;;;6.85;4.40;;;;;;;2.48;66.82;97945.95;1733093;80;21069;-40
2022/02/07 02:54:19;;;;;;;5.22;3.60;;;;;;;2.50;66.92;97943.72;1743269;81;21143;-40
2022/02/07 02:56:45;;;;;;;4.72;3.40;;;;;;;2.53;66.79;97934.22;1743132;82;20994;-40
2022/02/07 02:59:12;;;;;;;6.28;3.50;;;;;;;2.55;66.39;97923.97;1743134;82;21052;-40
2022/02/07 03:01:41;;;;;;;7.12;4.35;;;;;;;2.58;66.00;97905.33;1743226;81;20976;-40
2022/02/07 03:04:11;;;;;;;;;;;;;;;2.63;65.49;97920.36;1710046;83;21548;-40
2022/02/07 03:06:38;;;;;;;6.22;3.90;;;;;;;2.63;65.11;97914.45;1693969;84;21139;-40
2022/02/07 03:09:13;;;;;;;5.72;4.00;;;;;;;2.56;65.05;97910.27;1707095;84;21480;-41
2022/02/07 03:11:33;;;;;;;5.28;3.35;;;;;;;2.60;64.91;97906.34;1705989;84;20997;-40
2022/02/07 03:14:03;;;;;;;5.22;3.70;;;;;;;2.64;64.81;97901.85;1679181;84;21045;-40
2022/02/07 03:16:38;;;;;;;6.97;3.90;;;;;;;2.65;64.59;97902.63;1705440;84;21050;-40
2022/02/07 03:19:07;;;;;;;5.65;4.15;;;;;;;2.68;64.52;97905.39;1706946;83;22010;-40
2022/02/07 03:21:34;;;;;;;6.28;3.85;;;;;;;2.73;64.43;97898.45;1707318;84;20997;-40
2022/02/07 03:24:01;;;;;;;5.83;3.72;;;;;;;2.75;64.25;97897.56;1707129;83;21054;-40
2022/02/07 03:26:30;;;;;;;6.92;4.10;;;;;;;2.77;64.19;97889.95;1707218;84;21681;-40
2022/02/07 03:28:57;;;;;;;6.85;4.17;;;;;;;2.78;64.24;97882.15;1707436;83;21050;-40
2022/02/07 03:31:24;;;;;;;6.25;4.37;;;;;;;2.81;64.20;97884.13;1707077;84;21148;-40
2022/02/07 03:33:52;;;;;;;5.97;4.05;;;;;;;2.81;64.26;97870.75;1695454;84;20962;-40
2022/02/07 03:36:19;;;;;;;8.23;3.60;;;;;;;2.82;64.24;97868.85;1678797;85;21081;-40
2022/02/07 03:38:46;;;;;;;4.97;3.90;;;;;;;2.81;64.22;97861.38;1678888;85;21037;-40
2022/02/07 03:41:13;;;;;;;5.78;3.77;;;;;;;2.81;64.34;97857.95;1697248;84;21085;-40
2022/02/07 03:43:42;;;;;;;7.37;4.17;;;;;;;2.80;64.37;97865.20;1701923;84;21142;-41
2022/02/07 03:46:08;;;;;;;7.65;4.10;;;;;;;2.80;64.28;97859.07;1707242;84;20977;-40
2022/02/07 03:48:35;;;;;;;7.30;4.03;;;;;;;2.80;64.03;97859.84;1707476;83;21033;-40
2022/02/07 03:51:02;;;;;;;5.40;4.17;;;;;;;2.80;63.77;97849.14;1707184;84;21591;-40
2022/02/07 03:53:28;;;;;;;5.85;4.30;;;;;;;2.81;63.36;97852.59;1707481;84;21638;-40
2022/02/07 03:55:57;;;;;;;7.62;4.10;;;;;;;2.78;63.00;97848.70;1706941;83;21151;-40
2022/02/07 03:58:24;;;;;;;6.58;4.10;;;;;;;2.78;62.63;97851.37;1679128;84;21041;-40
2022/02/07 04:00:53;;;;;;;7.22;4.40;;;;;;;2.78;62.85;97843.34;1707203;84;21002;-40
2022/02/07 04:03:37;;;;;;;6.05;4.30;;;;;;;2.77;62.56;97851.16;1685723;84;21113;-40
2022/02/07 04:06:13;;;;;;;6.30;4.12;;;;;;;2.74;62.37;97849.17;1707122;83;21058;-40
2022/02/07 04:08:41;;;;;;;8.10;4.40;;;;;;;2.72;62.63;97847.39;1706680;83;21143;-40
2022/02/07 04:13:56;;;;;;;7.25;4.53;;;;;;;2.71;63.74;97843.16;1678722;85;20982;-40
2022/02/07 04:16:27;;;;;;;6.50;4.33;;;;;;;2.67;64.91;97839.62;1678712;85;21061;-41
2022/02/07 04:21:24;;;;;;;6.33;4.65;;;;;;;2.52;67.47;97833.12;1678700;85;21135;-40
2022/02/07 04:23:53;;;;;;;6.10;4.30;;;;;;;2.44;68.09;97830.63;1697955;83;20982;-40
2022/02/07 04:26:21;;;;;;;7.25;4.35;;;;;;;2.37;68.79;97826.44;1706661;84;21500;-41
2022/02/07 04:28:49;;;;;;;6.97;4.62;;;;;;;2.30;69.54;97822.23;1707365;84;21501;-40
2022/02/07 04:31:16;;;;;;;6.58;4.50;;;;;;;2.24;70.13;97827.60;1707591;84;21061;-40
2022/02/07 04:33:43;;;;;;;10.00;4.85;;;;;;;2.18;70.39;97826.51;1707233;83;21088;-40
2022/02/07 04:36:11;;;;;;;7.42;5.03;;;;;;;2.15;70.87;97821.08;1707078;84;20969;-40
2022/02/07 04:38:38;;;;;;;8.70;4.60;;;;;;;2.11;71.24;97819.66;1707375;84;21041;-40
2022/02/07 04:41:07;;;;;;;6.87;4.97;;;;;;;2.08;71.77;97816.30;1679126;84;20966;-40
2022/02/07 04:43:34;;;;;;;6.67;4.40;;;;;;;2.07;71.97;97810.77;1680089;84;21049;-40
2022/02/07 04:46:23;;;;;;;9.00;5.03;;;;;;;2.07;72.27;97814.77;1707603;84;21181;-40
2022/02/07 04:49:05;;;;;;;7.75;4.75;;;;;;;2.08;72.35;97801.60;1703645;84;21334;-40
2022/02/07 04:57:04;;;;;;;6.08;4.17;;;;;;;2.13;72.96;97796.02;1675970;84;21002;-40
2022/02/07 05:03:56;;;;;;;6.78;4.60;;;;;;;2.30;72.89;97788.25;1678945;85;21051;-40
2022/02/07 05:14:41;;;;;;;8.93;4.78;;;;;;;2.40;72.78;97795.77;1707297;84;21021;-40
2022/02/07 05:17:09;;;;;;;6.67;4.35;;;;;;;2.38;72.92;97797.22;1707177;84;21511;-40
2022/02/07 05:19:40;;;;;;;8.80;5.12;;;;;;;2.38;72.94;97801.23;1704679;84;21097;-40
2022/02/07 05:22:30;;;;;;;9.23;4.87;;;;;;;2.38;73.04;97803.91;1645781;86;21560;-40
2022/02/07 05:25:00;;;;;;;6.50;4.80;;;;;;;2.40;73.13;97812.38;1642648;87;21142;-40
2022/02/07 05:27:37;;;;;;;7.47;4.80;;;;;;;2.36;73.27;97822.98;1628370;88;21052;-40
2022/02/07 05:30:17;;;;;;;8.08;4.70;;;;;;;2.34;73.50;97828.45;1705560;84;21496;-40
2022/02/07 05:32:58;;;;;;;7.33;4.70;;;;;;;2.26;74.07;97825.38;1704940;83;21292;-40
2022/02/07 05:35:38;;;;;;;6.97;4.70;;;;;;;2.15;74.62;97816.52;1704743;84;21042;-40
2022/02/07 05:38:11;;;;;;;7.65;4.50;;;;;;;2.09;75.02;97824.55;1707409;84;21119;-40
2022/02/07 05:41:01;;;;;;;7.45;4.58;;;;;;;2.05;75.27;97809.53;1617641;88;21101;-40
2022/02/07 05:43:35;;;;;;;8.03;4.70;;;;;;;2.01;75.32;97810.78;1617763;88;21682;-40
2022/02/07 05:46:04;;;;;;;7.40;4.40;;;;;;;1.99;75.41;97807.66;1650086;84;28587;-40
2022/02/07 05:48:51;;;;;;;6.72;4.37;;;;;;;2.00;75.50;97802.55;1703815;84;21033;-40
2022/02/07 05:51:20;;;;;;;5.22;4.05;;;;;;;1.98;75.56;97804.80;1705229;84;21399;-40
2022/02/07 05:53:54;;;;;;;7.67;4.47;;;;;;;2.00;75.50;97798.53;1698771;84;21040;-40
2022/02/07 05:56:25;;;;;;;7.15;4.20;;;;;;;2.02;75.48;97797.64;1697694;84;21013;-40
2022/02/07 05:58:56;;;;;;;7.03;4.58;;;;;;;2.10;75.26;97792.70;1698846;84;21360;-40
2022/02/07 06:01:24;;;;;;;6.22;4.03;;;;;;;2.17;75.03;97792.90;1695486;84;21136;-40
2022/02/07 06:03:52;;;;;;;6.20;4.28;;;;;;;2.21;74.87;97797.55;1651682;85;21942;-40
2022/02/07 06:06:18;;;;;;;6.50;4.37;;;;;;;2.22;74.77;97793.77;1678742;85;21060;-40
2022/02/07 06:08:46;;;;;;;7.40;4.08;;;;;;;2.24;74.75;97794.18;1695966;83;21081;-40
2022/02/07 06:11:14;;;;;;;7.10;4.00;;;;;;;2.30;74.55;97803.52;1712547;83;21567;-40
2022/02/07 06:13:43;;;;;;;6.42;4.28;;;;;;;2.36;74.40;97799.48;1712903;83;21122;-40
2022/02/07 06:16:17;;;;;;;7.22;4.55;;;;;;;2.40;74.38;97784.30;1712818;83;21143;-40
2022/02/07 06:18:48;;;;;;;6.78;4.55;;;;;;;2.42;74.22;97786.08;1712823;83;21500;-40
2022/02/07 06:21:14;;;;;;;7.12;4.53;;;;;;;2.42;74.17;97787.41;1712640;83;20922;-40
2022/02/07 06:23:41;;;;;;;6.33;4.53;;;;;;;2.42;74.22;97790.84;1712934;83;21555;-41
2022/02/07 06:26:13;;;;;;;7.05;4.70;;;;;;;2.53;74.04;97783.87;1712315;83;21049;-40
2022/02/07 06:28:42;;;;;;;7.70;4.53;;;;;;;2.56;73.99;97785.88;1713032;83;21878;-40
2022/02/07 06:31:09;;;;;;;6.72;4.50;;;;;;;2.57;73.99;97794.65;1713219;83;20955;-41
2022/02/07 06:33:37;;;;;;;6.72;4.78;;;;;;;2.56;73.86;97792.56;1711401;83;21029;-40
2022/02/07 06:36:07;;;;;;;;;;;;;;;2.54;73.80;97790.00;1686732;85;21519;-41
2022/02/07 06:38:35;;;;;;;6.92;4.42;;;;;;;2.57;73.80;97808.02;1684345;84;20130;-40
2022/02/07 06:41:02;;;;;;;7.30;4.42;;;;;;;2.55;73.85;97804.94;1684293;85;21856;-40
2022/02/07 06:43:30;;;;;;;7.12;4.67;;;;;;;2.58;73.78;97802.89;1684222;85;22167;-40
2022/02/07 06:45:58;;;;;;;7.90;4.72;;;;;;;2.60;73.74;97806.02;1684149;85;21050;-40
2022/02/07 06:48:26;;;;;;;7.45;4.67;;;;;;;2.60;73.51;97807.35;1684169;85;20957;-40
2022/02/07 06:50:53;;;;;;;6.30;4.70;;;;;;;2.60;73.43;97795.31;1684340;85;21116;-40
2022/02/07 06:53:20;;;;;;;7.50;5.10;;;;;;;2.67;73.19;97797.37;1684242;85;21135;-40
2022/02/07 06:55:48;;;;;;;8.18;4.70;;;;;;;2.71;72.73;97793.66;1684128;85;21009;-40
2022/02/07 06:58:16;;;;;;;7.75;4.97;;;;;;;2.70;72.10;97797.48;1684239;85;20989;-40
2022/02/07 07:00:42;;;;;;;7.05;4.65;;;;;;;2.67;72.24;97796.03;1697834;83;21053;-41
2022/02/07 07:03:16;;;;;;;6.53;4.50;;;;;;;2.60;72.28;97790.74;1712830;83;20982;-40
2022/02/07 07:05:41;;;;;;;6.03;4.25;;;;;;;2.55;72.48;97783.53;1712767;83;21163;-40
2022/02/07 07:08:08;;;;;;;6.78;4.90;;;;;;;2.57;72.49;97783.95;1712657;83;21037;-40
2022/02/07 07:10:37;;;;;;;6.45;4.30;;;;;;;2.57;72.61;97783.95;1707454;83;20990;-40
2022/02/07 07:13:12;;;;;;;7.60;4.75;;;;;;;2.52;72.83;97779.62;1707135;83;21026;-40
2022/02/07 07:15:41;;;;;;;5.70;4.22;;;;;;;2.50;72.98;97773.87;1707278;84;21006;-40
2022/02/07 07:18:08;;;;;;;6.10;4.42;;;;;;;2.50;73.09;97778.44;1707626;83;21716;-40
2022/02/07 07:20:35;;;;;;;7.20;4.58;;;;;;;2.56;73.00;97773.83;1679047;84;21021;-40
2022/02/07 07:23:04;;;;;;;6.10;4.58;;;;;;;2.61;72.83;97771.45;1707134;83;21037;-40
2022/02/07 07:25:31;;;;;;;8.20;4.70;;;;;;;2.62;72.79;97775.11;1707274;84;21057;-40
2022/02/07 07:28:00;;;;;;;7.35;4.78;;;;;;;2.62;72.86;97775.66;1705392;83;21112;-41
2022/02/07 07:30:33;;;;;;;6.83;4.40;;;;;;;2.59;72.81;97769.13;1702029;84;21150;-39
2022/02/07 07:33:06;;;;;;;5.72;4.33;;;;;;;2.62;72.90;97767.08;1684625;83;21025;-40
2022/02/07 07:35:27;;;;;;;5.95;4.25;;;;;;;2.65;72.76;97769.64;1688688;83;21045;-39
2022/02/07 07:37:55;;;;;;;7.78;4.72;;;;;;;2.72;72.64;97756.98;1700066;84;21611;-40
2022/02/07 07:40:22;;;;;;;8.00;4.90;;;;;;;2.73;72.64;97748.61;1700143;84;21531;-40
2022/02/07 07:42:53;;;;;;;7.00;4.90;;;;;;;2.75;72.65;97742.36;1706715;83;21118;-40
2022/02/07 07:45:44;;;;;;;6.20;4.53;;;;;;;2.79;72.45;97742.44;1736279;81;21519;-40
2022/02/07 07:48:23;;;;;;;7.20;4.70;;;;;;;2.85;72.42;97740.50;1727158;82;20935;-40
2022/02/07 07:50:57;;;;;;;8.05;5.20;;;;;;;2.95;72.33;97739.94;1701235;83;21001;-40
2022/02/07 07:54:00;;;;;;;8.35;5.30;;;;;;;2.99;71.94;97736.80;1705180;84;21028;-40
2022/02/07 08:01:47;;;;;;;7.15;4.53;;;;;;;3.04;71.49;97732.52;1735383;80;20966;-39
2022/02/07 08:04:14;;;;;;;8.48;4.67;;;;;;;3.10;71.51;97733.59;1681805;83;21121;-39
2022/02/07 08:07:19;;;;;;;9.10;5.15;;;;;;;3.13;71.23;97733.66;1721134;81;21033;-39
2022/02/07 08:09:23;;;;;;;8.65;5.62;;;;;;;3.15;71.12;97725.28;1697751;83;21222;-40
2022/02/07 08:11:45;;;;;;;8.03;5.08;;;;;;;3.15;71.08;97722.02;1746596;81;20985;-39
2022/02/07 08:14:11;;;;;;;11.75;5.15;;;;;;;3.19;71.03;97716.20;1739834;80;21477;-40
2022/02/07 08:16:38;;;;;;;6.12;4.85;;;;;;;3.23;70.74;97717.59;1732426;82;21004;-39
2022/02/07 08:19:07;;;;;;;5.87;4.58;;;;;;;3.29;70.69;97705.49;1714920;83;21001;-39
2022/02/07 08:21:35;;;;;;;6.90;4.67;;;;;;;3.35;70.28;97702.16;1710038;83;21149;-40
2022/02/07 08:24:44;;;;;;;6.83;4.72;;;;;;;3.46;70.29;97708.52;1830401;78;22615;-39
2022/02/07 08:27:11;;;;;;;5.30;4.10;;;;;;;3.47;70.20;97713.31;1787578;79;21684;-39
2022/02/07 08:29:37;;;;;;;7.22;4.45;;;;;;;3.51;69.62;97719.52;1771344;81;21172;-39
2022/02/07 08:32:06;;;;;;;7.20;4.00;;;;;;;3.54;69.38;97718.80;1781248;79;20992;-39
2022/02/07 08:34:34;;;;;;;5.85;4.10;;;;;;;3.56;69.42;97735.31;1803175;79;21562;-39
2022/02/07 08:37:02;;;;;;;9.43;5.10;;;;;;;3.58;69.65;97734.97;1791843;79;21012;-39
2022/02/07 08:39:29;;;;;;;11.10;5.55;;;;;;;3.62;69.61;97733.13;1778424;79;20953;-39
2022/02/07 08:41:56;;;;;;;7.35;5.60;;;;;;;3.66;69.33;97725.38;1778929;79;21135;-39
2022/02/07 08:44:23;;;;;;;10.45;6.60;;;;;;;3.69;69.29;97725.22;1771290;81;20957;-39
2022/02/07 08:46:50;;;;;;;8.20;5.40;;;;;;;3.74;69.14;97724.37;1771397;81;20941;-39
2022/02/07 08:49:16;;;;;;;9.58;6.75;;;;;;;3.78;68.85;97736.49;1771237;81;21023;-40
2022/02/07 08:51:43;;;;;;;10.70;7.25;;;;;;;3.79;68.45;97717.95;1799951;79;21519;-39
2022/02/07 08:54:10;;;;;;;9.23;6.90;;;;;;;3.84;68.32;97729.72;1802964;79;21045;-39
2022/02/07 08:56:47;;;;;;;13.43;7.28;;;;;;;3.88;67.85;97727.88;1802817;79;20953;-39
2022/02/07 08:59:09;;;;;;;8.93;6.60;;;;;;;3.93;67.66;97728.38;1801357;79;20879;-40
2022/02/07 09:02:49;;;;;;;8.25;5.75;;;;;;;3.99;67.20;97733.45;1785527;79;21072;-39
2022/02/07 09:06:56;;;;;;;12.13;7.03;;;;;;;4.10;66.69;97729.06;1783626;79;21060;-40
2022/02/07 09:09:15;;;;;;;10.82;7.47;;;;;;;4.12;66.27;97745.55;1770791;80;21045;-39
2022/02/07 09:11:38;;;;;;;10.75;6.78;;;;;;;4.11;66.29;97737.31;1777810;80;20976;-39
2022/02/07 09:14:10;;;;;;;12.80;7.75;;;;;;;4.05;66.10;97732.81;1779080;79;20926;-39
2022/02/07 09:16:33;;;;;;;11.20;7.72;;;;;;;4.02;66.39;97740.80;1786705;79;21525;-39
2022/02/07 09:19:01;;;;;;;10.18;6.53;;;;;;;4.00;66.49;97742.48;1777547;80;21123;-40
2022/02/07 09:21:28;;;;;;;8.60;6.33;;;;;;;4.03;66.49;97738.30;1769584;81;20996;-39
2022/02/07 09:23:57;;;;;;;11.38;7.22;;;;;;;4.08;66.30;97740.69;1794896;79;21488;-39
2022/02/07 09:26:23;;;;;;;59.40;31.75;;;;;;;4.12;66.30;97742.88;1800230;79;21033;-39
2022/02/07 09:28:50;;;;;;;19.25;13.03;;;;;;;4.14;66.16;97740.62;1793696;79;21347;-39
2022/02/07 09:31:18;;;;;;;9.05;6.75;;;;;;;4.14;65.95;97739.28;1802061;79;21192;-39
2022/02/07 09:33:45;;;;;;;10.18;7.20;;;;;;;4.14;65.83;97740.62;1789099;78;21060;-39
2022/02/07 09:36:15;;;;;;;10.65;6.65;;;;;;;4.15;65.65;97744.86;1771371;79;21515;-39
2022/02/07 09:38:42;;;;;;;;;;;;;;;4.16;65.15;97738.37;1799136;79;21441;-39
2022/02/07 09:41:09;;;;;;;19.07;12.00;;;;;;;4.15;65.06;97742.17;1800521;79;20175;-39
2022/02/07 09:43:43;;;;;;;14.25;9.75;;;;;;;4.06;65.10;97753.70;1785657;79;22389;-39
2022/02/07 09:46:08;;;;;;;8.78;5.62;;;;;;;4.07;65.15;97749.30;1781533;79;21077;-39
2022/02/07 09:48:39;;;;;;;9.80;6.00;;;;;;;4.08;64.98;97751.42;1784841;78;20985;-39
2022/02/07 09:51:07;;;;;;;10.00;6.62;;;;;;;4.05;65.01;97754.83;1789860;79;21476;-39
2022/02/07 09:53:34;;;;;;;8.48;5.45;;;;;;;3.99;65.01;97752.98;1799978;78;21476;-39
2022/02/07 09:56:02;;;;;;;15.15;10.58;;;;;;;3.98;64.95;97754.67;1788875;79;21182;-39
2022/02/07 09:58:32;;;;;;;8.35;6.15;;;;;;;3.96;65.06;97756.39;1794178;79;20962;-40
2022/02/07 10:01:00;;;;;;;12.43;8.33;;;;;;;3.98;64.85;97756.02;1781524;79;21004;-39
2022/02/07 10:03:34;;;;;;;9.40;6.35;;;;;;;3.99;64.78;97757.02;1768152;80;21088;-42
2022/02/07 10:06:05;;;;;;;7.53;6.12;;;;;;;4.03;64.54;97765.12;1768972;79;21085;-40
2022/02/07 10:08:50;;;;;;;8.00;5.47;;;;;;;4.04;64.27;97762.65;1791739;79;21961;-40
2022/02/07 10:38:56;;;;;;;29.60;19.17;;;;;;;3.44;68.47;97748.27;1721307;83;21040;-41
2022/02/07 10:44:44;;;;;;;13.10;8.05;;;;;;;3.54;68.38;97756.31;1736344;80;21044;-40
2022/02/07 10:47:28;;;;;;;12.35;9.43;;;;;;;3.59;68.27;97745.87;1721357;83;21031;-40
2022/02/07 10:50:13;;;;;;;16.70;11.15;;;;;;;3.67;68.21;97750.27;1727534;82;21163;-41
2022/02/07 10:52:59;;;;;;;6.12;4.67;;;;;;;3.72;67.91;97753.45;1721310;83;21043;-41
2022/02/07 10:55:32;;;;;;;11.10;6.87;;;;;;;3.72;67.85;97745.41;1782959;78;21002;-41
2022/02/07 10:58:01;;;;;;;10.85;6.58;;;;;;;3.72;67.86;97733.91;1780253;79;21520;-41
2022/02/07 11:00:53;;;;;;;8.58;6.08;;;;;;;3.73;67.79;97740.23;1785998;79;20994;-40
2022/02/07 11:05:42;;;;;;;7.62;4.62;;;;;;;3.75;67.70;97723.81;1771334;79;20982;-41
2022/02/07 11:08:22;;;;;;;7.83;4.30;;;;;;;3.77;67.57;97716.20;1773093;80;21531;-41
2022/02/07 11:11:00;;;;;;;10.77;6.33;;;;;;;3.77;67.55;97711.62;1785322;80;20997;-40
2022/02/07 11:15:50;;;;;;;15.28;6.95;;;;;;;3.72;67.66;97693.14;1772320;79;21569;-41
2022/02/07 11:18:34;;;;;;;53.10;26.93;;;;;;;3.72;67.68;97687.78;1770268;79;21064;-40
2022/02/07 11:21:15;;;;;;;32.05;17.55;;;;;;;3.72;67.71;97673.61;1780791;79;21440;-40
2022/02/07 11:23:55;;;;;;;8.30;5.05;;;;;;;3.77;67.75;97663.94;1803039;78;21618;-41
2022/02/07 11:26:30;;;;;;;6.75;4.80;;;;;;;3.84;67.56;97658.12;1759575;79;21045;-40
2022/02/07 11:28:53;;;;;;;9.90;6.12;;;;;;;3.93;67.46;97660.01;1798762;79;21144;-40
2022/02/07 11:31:29;;;;;;;7.17;4.75;;;;;;;4.10;67.03;97653.41;1803175;79;21535;-41
2022/02/07 11:34:02;;;;;;;6.97;5.05;;;;;;;3.88;66.44;97591.16;1795960;79;20925;-41
2022/02/07 11:36:36;;;;;;;8.13;5.65;;;;;;;4.32;66.12;97646.47;1738809;79;21025;-41
2022/02/07 11:39:17;;;;;;;6.12;4.80;;;;;;;4.40;65.81;97644.13;1801984;79;21575;-41
2022/02/07 11:42:04;;;;;;;11.25;5.60;;;;;;;4.47;65.47;97630.80;1805389;79;21097;-41
2022/02/07 11:44:43;;;;;;;8.03;5.37;;;;;;;4.56;65.32;97635.34;1804823;79;21069;-40
2022/02/07 11:47:20;;;;;;;8.05;5.45;;;;;;;4.67;64.92;97642.98;1805425;79;21002;-41
2022/02/07 11:49:50;;;;;;;18.12;10.25;;;;;;;4.75;64.22;97651.33;1808947;79;21015;-39
2022/02/07 11:52:36;;;;;;;12.47;8.78;;;;;;;4.87;64.19;97652.27;1804184;79;21015;-40
2022/02/07 11:55:14;;;;;;;10.70;7.10;;;;;;;5.11;63.95;97663.91;1792239;79;21906;-40
2022/02/07 11:58:27;;;;;;;14.18;9.58;;;;;;;5.51;62.69;97682.06;1786576;79;21017;-40
2022/02/07 12:00:35;;;;;;;60.78;36.42;;;;;;;5.93;61.74;97691.18;1760116;80;20933;-40
2022/02/07 12:03:06;;;;;;;21.85;13.18;;;;;;;6.41;60.20;97706.81;1794823;79;20933;-42
2022/02/07 12:05:32;;;;;;;28.62;16.75;;;;;;;6.87;58.52;97717.95;1801971;78;21013;-39
2022/02/07 12:08:08;;;;;;;28.00;16.75;;;;;;;7.22;57.71;97723.55;1775793;79;21185;-40
2022/02/07 12:10:38;;;;;;;16.70;11.08;;;;;;;7.55;56.91;97717.77;1776672;79;20957;-41
2022/02/07 12:13:26;;;;;;;9.60;6.97;;;;;;;7.85;55.76;97731.73;1797920;79;21448;-46
2022/02/07 12:15:55;;;;;;;8.55;6.65;;;;;;;8.01;54.83;97733.52;1720116;82;21091;-45
2022/02/07 12:18:24;;;;;;;;;;;;;;;8.15;54.84;97742.22;1793724;79;21023;-45
2022/02/07 12:20:54;;;;;;;6.45;5.10;;;;;;;8.39;54.51;97741.53;1791258;79;21756;-45
2022/02/07 12:23:31;;;;;;;7.75;5.72;;;;;;;8.60;53.66;97735.38;1779960;79;21117;-45
2022/02/07 12:26:12;;;;;;;8.55;5.53;;;;;;;8.91;52.67;97727.06;1775984;80;20943;-45
2022/02/07 12:28:45;;;;;;;8.08;4.90;;;;;;;9.23;51.75;97727.03;1776447;80;20934;-45
2022/02/07 12:31:22;;;;;;;7.78;5.03;;;;;;;9.43;51.03;97720.80;1806456;79;21021;-45
2022/02/07 12:34:10;;;;;;;7.95;5.20;;;;;;;9.59;50.41;97716.28;1807671;79;21105;-45
2022/02/07 12:36:37;;;;;;;5.75;4.80;;;;;;;9.72;50.40;97718.77;1808004;79;21613;-45
2022/02/07 12:39:13;;;;;;;8.28;5.90;;;;;;;9.86;49.79;97713.28;1793449;79;21045;-46
2022/02/07 12:41:41;;;;;;;7.72;5.30;;;;;;;10.01;49.27;97722.87;1808157;79;21618;-45
2022/02/07 12:44:09;;;;;;;7.08;5.45;;;;;;;10.09;48.86;97729.59;1795932;79;21055;-46
2022/02/07 12:46:39;;;;;;;15.78;12.00;;;;;;;10.18;48.73;97729.95;1796696;79;21112;-45
2022/02/07 12:49:11;;;;;;;106.15;56.45;;;;;;;10.25;48.58;97736.70;1791110;79;20965;-45
2022/02/07 12:51:42;;;;;;;90.15;48.73;;;;;;;10.17;48.39;97740.59;1799921;79;20986;-45
2022/02/07 12:54:04;;;;;;;112.77;64.92;;;;;;;10.08;48.64;97751.06;1807607;79;21000;-45
2022/02/07 12:56:32;;;;;;;16.80;11.20;;;;;;;10.02;48.96;97760.20;1808237;79;20999;-40
2022/02/07 12:59:01;;;;;;;7.50;5.25;;;;;;;10.12;48.71;97755.90;1806008;79;21134;-44
2022/02/07 13:01:32;;;;;;;7.22;5.60;;;;;;;10.14;48.39;97761.67;1798785;78;20945;-45
2022/02/07 13:04:06;;;;;;;7.35;4.90;;;;;;;10.00;48.65;97764.65;1786793;78;20992;-45
2022/02/07 13:06:43;;;;;;;7.62;4.85;;;;;;;9.80;49.06;97763.56;1808019;79;21464;-45
2022/02/07 13:09:23;;;;;;;7.47;4.70;;;;;;;9.63;49.63;97775.23;1799018;79;20973;-45
2022/02/07 13:12:01;;;;;;;18.70;12.93;;;;;;;9.35;49.93;97777.41;1798519;78;21097;-45
2022/02/07 13:14:18;;;;;;;53.48;28.92;;;;;;;8.96;50.76;97776.09;1802916;79;21677;-44
2022/02/07 13:16:46;;;;;;;22.30;13.28;;;;;;;8.72;51.48;97779.56;1801672;78;20966;-44
2022/02/07 13:19:15;;;;;;;36.90;18.92;;;;;;;8.58;51.84;97780.33;1776673;79;21665;-45
2022/02/07 13:21:45;;;;;;;45.25;24.85;;;;;;;8.46;52.23;97775.31;1776565;80;21488;-45
2022/02/07 13:24:17;;;;;;;33.38;21.97;;;;;;;8.39;52.39;97771.80;1792613;79;25432;-45
2022/02/07 13:26:51;;;;;;;9.45;6.58;;;;;;;8.24;52.76;97760.95;1787095;79;20890;-44
2022/02/07 13:29:20;;;;;;;7.15;5.17;;;;;;;8.17;53.07;97770.39;1791508;80;20963;-44
2022/02/07 13:32:01;;;;;;;7.00;4.97;;;;;;;8.12;53.19;97762.67;1791313;79;21022;-44
2022/02/07 13:34:31;;;;;;;7.58;5.28;;;;;;;8.04;53.40;97755.69;1764779;79;21095;-44
2022/02/07 13:37:24;;;;;;;7.15;5.75;;;;;;;8.01;53.68;97755.11;1760248;81;21123;-44
2022/02/07 13:40:12;;;;;;;7.62;5.15;;;;;;;7.95;53.77;97762.02;1760386;80;22190;-44
2022/02/07 13:42:42;;;;;;;7.30;4.92;;;;;;;7.86;53.89;97761.03;1760339;81;21014;-44
2022/02/07 13:45:14;;;;;;;9.88;7.17;;;;;;;7.77;54.17;97751.75;1760126;79;21013;-44
2022/02/07 13:47:44;;;;;;;7.83;5.42;;;;;;;7.71;54.46;97755.38;1760311;81;21069;-44
2022/02/07 13:50:14;;;;;;;7.83;5.20;;;;;;;7.70;54.57;97754.40;1781201;79;21988;-44
2022/02/07 13:52:44;;;;;;;8.43;5.50;;;;;;;7.64;54.55;97757.28;1791425;80;21063;-43
2022/02/07 13:55:30;;;;;;;8.55;6.62;;;;;;;7.50;54.83;97760.69;1786093;80;21004;-44
2022/02/07 13:58:18;;;;;;;10.88;7.15;;;;;;;7.33;55.29;97763.48;1791321;79;20997;-44
2022/02/07 14:00:53;;;;;;;8.63;5.10;;;;;;;7.18;55.74;97761.84;1789820;80;21255;-44
2022/02/07 14:03:33;;;;;;;9.55;6.50;;;;;;;7.06;56.04;97751.95;1782997;80;21865;-44
2022/02/07 14:06:10;;;;;;;7.12;5.08;;;;;;;6.94;56.36;97759.74;1742425;79;20974;-44
2022/02/07 14:08:55;;;;;;;7.55;4.75;;;;;;;6.81;56.69;97755.80;1781770;79;21507;-44
2022/02/07 14:11:29;;;;;;;7.83;5.15;;;;;;;6.66;57.07;97752.80;1771602;81;21013;-45
2022/02/07 14:14:01;;;;;;;8.53;5.53;;;;;;;6.47;57.51;97761.30;1776069;80;21042;-43
2022/02/07 14:16:28;;;;;;;7.70;5.20;;;;;;;6.24;58.06;97760.69;1777017;80;21135;-45